Mexia, Alabama
Current Conditions -  °F | °C
As of 11:53 PM on Tuesday 21 Oct 2014 (Local Time) from KGZH Reporting Station
Clear Clear  
Wind Chill: 53°   Ceiling: Unl
Heat Index: 53°   Visibility: 8mi
Dew Point: 51°   Wind: 3mph
Humidity: 93%   Direction: 340°NNW
Pressure: 30.03"   Gusts: NA
Location:  31.51°N, 87.39°W
Report Text: KGZH 220453Z AUTO 34003KT 8SM CLR 12/11 A3003 RMK AO2 SLP168 T01170106
Loading
Personal Weather Stations






























Interactive Weather Map
Tropical Storm Tracking
New forecast layout! Learn more

10-Day Weather Forecast

Advertisements
Track Severe Weather on mobile